Time;durP1;ratioP1;P1;durP2;ratioP2;P2;SDS_P1;SDS_P2;PMS_P1;PMS_P2;Temp;Humidity;BMP_temperature;BMP_pressure;BME280_temperature;BME280_humidity;BME280_pressure;Samples;Min_cycle;Max_cycle;Signal;HPM_P1;HPM_P2
2021/01/06 04:00:33;;;;;;;26.17;13.30;;;;;;;0.76;100.00;100771.46;1751094;78;21129;-73
2021/01/06 04:03:04;;;;;;;28.32;14.65;;;;;;;0.73;100.00;100763.53;1735291;80;21220;-73
2021/01/06 04:05:34;;;;;;;22.48;12.73;;;;;;;0.73;100.00;100767.39;1721349;82;21176;-73
2021/01/06 04:08:03;;;;;;;22.25;12.75;;;;;;;0.73;100.00;100769.48;1718840;82;22000;-73
2021/01/06 04:10:38;;;;;;;26.77;13.03;;;;;;;0.73;100.00;100770.77;1717348;82;21097;-73
2021/01/06 04:13:06;;;;;;;33.45;15.20;;;;;;;0.73;100.00;100769.48;1741366;80;21547;-73
2021/01/06 04:15:34;;;;;;;36.73;14.63;;;;;;;0.73;100.00;100770.77;1744130;80;21121;-75
2021/01/06 04:18:02;;;;;;;36.80;14.03;;;;;;;0.74;100.00;100766.45;1742857;80;21066;-73
2021/01/06 04:20:38;;;;;;;26.75;13.95;;;;;;;0.75;100.00;100769.83;1742487;80;22244;-72
2021/01/06 04:23:10;;;;;;;33.40;16.17;;;;;;;0.75;100.00;100766.80;1745242;80;20994;-73
2021/01/06 04:25:43;;;;;;;29.12;14.55;;;;;;;0.76;100.00;100762.48;1745232;80;20979;-73
2021/01/06 04:28:19;;;;;;;28.02;16.95;;;;;;;0.73;100.00;100756.66;1740273;80;21097;-74
2021/01/06 04:30:55;;;;;;;33.98;19.45;;;;;;;0.74;100.00;100757.47;1743436;80;20907;-74
2021/01/06 04:33:27;;;;;;;33.18;17.90;;;;;;;0.73;100.00;100769.48;1746489;80;21217;-74
2021/01/06 04:35:57;;;;;;;34.53;18.37;;;;;;;0.72;100.00;100773.45;1727308;81;21223;-75
2021/01/06 04:38:31;;;;;;;20.20;13.15;;;;;;;0.73;100.00;100787.45;1743185;80;21152;-75
2021/01/06 04:41:21;;;;;;;26.93;13.98;;;;;;;0.73;100.00;100777.19;1745218;80;20935;-75
2021/01/06 04:44:10;;;;;;;23.83;13.93;;;;;;;0.73;100.00;100779.75;1739845;80;21081;-75
2021/01/06 04:46:55;;;;;;;25.70;12.50;;;;;;;0.73;100.00;100790.02;1742683;80;21663;-75
2021/01/06 04:49:54;;;;;;;21.52;11.55;;;;;;;0.75;100.00;100786.52;1745230;80;21558;-75
2021/01/06 04:52:48;;;;;;;28.55;14.05;;;;;;;0.75;100.00;100782.66;1672627;82;21218;-74
2021/01/06 04:55:54;;;;;;;22.98;13.25;;;;;;;0.76;100.00;100785.14;1679646;84;21000;-74
2021/01/06 04:58:37;;;;;;;20.72;12.35;;;;;;;0.76;100.00;100783.01;1712399;82;21131;-66
2021/01/06 05:01:59;;;;;;;26.48;12.85;;;;;;;0.75;100.00;100781.38;1701236;82;21408;-66
2021/01/06 05:04:39;;;;;;;;;;;;;;;0.75;100.00;100783.48;1715503;82;21038;-67
2021/01/06 05:07:30;;;;;;;28.10;14.33;;;;;;;0.73;100.00;100792.58;1712560;82;20276;-67
2021/01/06 05:10:20;;;;;;;21.57;12.65;;;;;;;0.74;100.00;100792.11;1711288;82;22297;-67
2021/01/06 05:12:48;;;;;;;22.75;13.28;;;;;;;0.73;100.00;100784.88;1712640;82;21125;-67
2021/01/06 05:15:41;;;;;;;29.55;16.20;;;;;;;0.75;100.00;100791.64;1689310;83;21379;-66
2021/01/06 05:18:09;;;;;;;22.42;13.62;;;;;;;0.73;100.00;100798.99;1739686;80;21156;-68
2021/01/06 05:20:38;;;;;;;26.95;13.03;;;;;;;0.73;100.00;100800.28;1745854;80;21070;-68
2021/01/06 05:23:08;;;;;;;22.37;13.48;;;;;;;0.73;100.00;100791.30;1743257;80;21030;-68
2021/01/06 05:25:36;;;;;;;24.95;15.20;;;;;;;0.73;100.00;100793.05;1703910;82;22098;-68
2021/01/06 05:28:06;;;;;;;24.07;15.18;;;;;;;0.73;100.00;100793.05;1673397;80;21575;-66
2021/01/06 05:30:35;;;;;;;28.73;14.07;;;;;;;0.73;100.00;100787.91;1720437;81;21141;-68
2021/01/06 05:33:13;;;;;;;26.10;13.25;;;;;;;0.75;100.00;100789.08;1743945;80;21125;-68
2021/01/06 05:35:46;;;;;;;28.77;14.13;;;;;;;0.75;100.00;100789.89;1740684;80;21232;-69
2021/01/06 05:38:14;;;;;;;27.80;16.25;;;;;;;0.76;100.00;100793.27;1743510;80;21089;-68
2021/01/06 05:40:43;;;;;;;21.70;14.95;;;;;;;0.75;100.00;100799.34;1739999;80;21154;-69
2021/01/06 05:43:29;;;;;;;22.82;12.98;;;;;;;0.77;100.00;100800.88;1721692;81;22090;-69
2021/01/06 05:46:02;;;;;;;25.75;14.40;;;;;;;0.79;100.00;100807.19;1744766;80;20955;-68
2021/01/06 05:48:46;;;;;;;23.27;14.78;;;;;;;0.80;100.00;100816.55;1742975;80;21057;-68
2021/01/06 05:51:26;;;;;;;29.05;16.07;;;;;;;0.82;100.00;100813.39;1740512;80;21219;-68
2021/01/06 05:54:05;;;;;;;23.25;13.85;;;;;;;0.82;100.00;100809.54;1743989;80;21197;-67
2021/01/06 05:56:54;;;;;;;28.55;15.25;;;;;;;0.82;100.00;100813.39;1741545;80;21017;-68
2021/01/06 05:59:50;;;;;;;25.88;14.60;;;;;;;0.84;100.00;100811.55;1713132;82;21171;-67
2021/01/06 06:02:58;;;;;;;25.62;14.68;;;;;;;0.84;100.00;100809.80;1732048;81;21141;-69
2021/01/06 06:06:02;;;;;;;25.17;14.53;;;;;;;0.86;100.00;100812.25;1716084;82;21257;-67
2021/01/06 06:09:02;;;;;;;31.30;16.87;;;;;;;0.87;100.00;100808.75;1716532;82;21627;-68
2021/01/06 06:12:09;;;;;;;24.30;15.50;;;;;;;0.88;100.00;100809.13;1754310;80;26973;-67
2021/01/06 06:15:22;;;;;;;25.40;14.93;;;;;;;0.87;100.00;100809.59;1750938;80;21077;-67
2021/01/06 06:18:18;;;;;;;20.23;13.95;;;;;;;0.89;100.00;100810.76;1714940;82;21086;-68
2021/01/06 06:21:01;;;;;;;23.18;14.63;;;;;;;0.89;100.00;100806.91;1719136;82;21154;-67
2021/01/06 06:23:46;;;;;;;24.92;14.70;;;;;;;0.89;100.00;100805.16;1721290;82;21401;-67
2021/01/06 06:26:41;;;;;;;26.17;15.48;;;;;;;0.90;100.00;100804.69;1710555;83;21646;-66
2021/01/06 06:29:37;;;;;;;26.40;16.62;;;;;;;0.91;100.00;100806.32;1709932;83;21070;-67
2021/01/06 06:32:06;;;;;;;23.62;15.03;;;;;;;0.92;100.00;100797.25;1677007;83;21201;-67
2021/01/06 06:34:38;;;;;;;28.12;14.80;;;;;;;0.94;100.00;100794.56;1741508;80;21160;-67
2021/01/06 06:37:18;;;;;;;25.75;16.62;;;;;;;0.95;100.00;100797.51;1711941;82;21264;-65
2021/01/06 06:40:00;;;;;;;26.45;18.05;;;;;;;0.96;100.00;100806.84;1719116;82;21122;-65
2021/01/06 06:42:54;;;;;;;29.35;15.10;;;;;;;0.97;100.00;100813.61;1719212;82;21220;-66
2021/01/06 06:45:37;;;;;;;29.05;16.82;;;;;;;0.99;100.00;100816.08;1711367;83;21198;-63
2021/01/06 06:48:19;;;;;;;26.05;16.10;;;;;;;0.99;100.00;100822.50;1707648;83;21126;-66
2021/01/06 06:50:52;;;;;;;23.77;16.25;;;;;;;0.99;100.00;100829.73;1735520;80;21304;-65
2021/01/06 06:53:45;;;;;;;24.47;15.35;;;;;;;0.99;100.00;100827.17;1752781;80;21574;-65
2021/01/06 06:56:31;;;;;;;27.13;16.20;;;;;;;1.01;100.00;100836.84;1718815;82;21217;-64
2021/01/06 06:59:13;;;;;;;24.80;16.07;;;;;;;1.03;100.00;100837.58;1718561;82;21208;-62
2021/01/06 07:01:44;;;;;;;27.35;18.52;;;;;;;1.05;100.00;100837.45;1723566;81;21132;-65
2021/01/06 07:04:39;;;;;;;27.17;18.62;;;;;;;1.07;100.00;100834.33;1747760;80;21379;-65
2021/01/06 07:07:07;;;;;;;27.10;17.23;;;;;;;1.09;100.00;100838.88;1732845;80;21124;-65
2021/01/06 07:09:37;;;;;;;32.50;18.77;;;;;;;1.10;100.00;100836.22;1715580;80;21104;-64
2021/01/06 07:12:09;;;;;;;28.05;16.57;;;;;;;1.13;100.00;100832.59;1746359;80;21136;-64
2021/01/06 07:14:54;;;;;;;29.42;20.85;;;;;;;1.15;100.00;100831.58;1752133;80;21483;-62
2021/01/06 07:17:39;;;;;;;38.75;24.37;;;;;;;1.16;100.00;100825.50;1716960;82;21330;-62
2021/01/06 07:20:11;;;;;;;36.48;21.42;;;;;;;1.16;100.00;100820.36;1754631;80;21455;-62
2021/01/06 07:22:46;;;;;;;35.38;21.10;;;;;;;1.15;100.00;100826.44;1714902;82;21086;-62
2021/01/06 07:25:25;;;;;;;31.52;19.17;;;;;;;1.16;100.00;100836.24;1739494;80;21084;-63
2021/01/06 07:27:57;;;;;;;27.13;18.17;;;;;;;1.17;100.00;100830.17;1719674;82;21128;-64
2021/01/06 07:30:36;;;;;;;;;;;;;;;1.20;100.00;100829.95;1720704;82;21218;-63
2021/01/06 07:33:34;;;;;;;24.67;16.40;;;;;;;1.23;100.00;100843.05;1714726;82;21918;-65
2021/01/06 07:36:09;;;;;;;29.25;15.85;;;;;;;1.19;100.00;100836.84;1715930;83;20963;-65
2021/01/06 07:38:38;;;;;;;32.40;18.48;;;;;;;1.16;100.00;100834.48;1716583;82;21534;-63
2021/01/06 07:41:06;;;;;;;32.30;17.35;;;;;;;1.13;100.00;100837.27;1717155;82;21142;-62
2021/01/06 07:43:36;;;;;;;22.87;13.53;;;;;;;1.15;100.00;100835.42;1710082;82;21681;-63
2021/01/06 07:46:17;;;;;;;30.85;17.48;;;;;;;1.18;100.00;100831.36;1715264;82;21172;-64
2021/01/06 07:48:57;;;;;;;23.12;15.53;;;;;;;1.18;100.00;100835.22;1714585;82;21248;-62
2021/01/06 07:52:04;;;;;;;22.75;13.88;;;;;;;1.21;100.00;100835.44;1718560;82;20978;-61
2021/01/06 07:54:50;;;;;;;22.75;14.85;;;;;;;1.24;100.00;100845.97;1716606;82;21144;-63
2021/01/06 07:57:45;;;;;;;22.13;14.63;;;;;;;1.27;100.00;100843.19;1659561;84;21604;-64
2021/01/06 08:00:17;;;;;;;29.48;17.27;;;;;;;1.30;100.00;100848.94;1717494;81;21239;-63
2021/01/06 08:02:58;;;;;;;22.77;14.90;;;;;;;1.32;100.00;100848.81;1713645;82;21141;-68
2021/01/06 08:05:35;;;;;;;23.18;13.75;;;;;;;1.33;100.00;100846.16;1703860;82;21225;-61
2021/01/06 08:08:09;;;;;;;21.85;13.50;;;;;;;1.29;100.00;100849.88;1752448;80;21637;-62
2021/01/06 08:10:42;;;;;;;26.25;15.28;;;;;;;1.27;100.00;100843.19;1715433;82;21226;-64
2021/01/06 08:13:18;;;;;;;25.62;16.52;;;;;;;1.26;100.00;100842.84;1713373;82;21152;-62
2021/01/06 08:15:50;;;;;;;30.45;22.50;;;;;;;1.26;100.00;100841.09;1713370;82;21185;-62
2021/01/06 08:18:56;;;;;;;34.15;27.62;;;;;;;1.25;100.00;100841.18;1753000;80;21026;-64
2021/01/06 08:21:53;;;;;;;24.77;17.75;;;;;;;1.25;100.00;100838.17;1655476;84;21045;-62
2021/01/06 08:24:29;;;;;;;33.35;21.10;;;;;;;1.25;100.00;100834.33;1682021;83;21220;-62
2021/01/06 08:27:00;;;;;;;24.27;16.35;;;;;;;1.23;100.00;100834.06;1669259;83;21179;-64
2021/01/06 08:29:33;;;;;;;30.23;18.05;;;;;;;1.20;100.00;100833.34;1666754;83;21057;-64
2021/01/06 08:32:18;;;;;;;25.05;15.72;;;;;;;1.18;100.00;100832.64;1688171;82;21157;-64
2021/01/06 08:35:03;;;;;;;30.57;18.05;;;;;;;1.19;100.00;100832.17;1685124;82;21120;-65
2021/01/06 08:37:35;;;;;;;28.62;16.90;;;;;;;1.18;100.00;100831.36;1685738;82;21279;-64
2021/01/06 08:40:08;;;;;;;25.95;16.15;;;;;;;1.20;100.00;100828.67;1684147;84;21093;-64
2021/01/06 08:42:45;;;;;;;23.47;15.05;;;;;;;1.19;100.00;100831.71;1682411;84;21597;-71
2021/01/06 08:45:30;;;;;;;24.63;16.35;;;;;;;1.17;100.00;100827.13;1688051;82;21826;-65
2021/01/06 08:48:35;;;;;;;21.87;15.80;;;;;;;1.17;100.00;100827.13;1683673;84;21139;-64
2021/01/06 08:51:15;;;;;;;25.35;17.20;;;;;;;1.20;100.00;100836.38;1684299;84;21346;-64
2021/01/06 08:53:47;;;;;;;;;;;;;;;1.21;100.00;100828.59;1684502;83;21670;-64
2021/01/06 08:56:24;;;;;;;22.02;14.68;;;;;;;1.27;100.00;100834.20;1684690;82;20321;-64
2021/01/06 08:58:57;;;;;;;25.30;15.08;;;;;;;1.31;100.00;100829.20;1683212;82;20998;-65
2021/01/06 09:02:22;;;;;;;23.95;15.72;;;;;;;1.35;100.00;100822.91;1684660;82;20954;-79
2021/01/06 09:04:51;;;;;;;25.15;15.95;;;;;;;1.41;100.00;100827.63;1684692;84;22599;-72
2021/01/06 09:07:26;;;;;;;24.72;16.62;;;;;;;1.47;100.00;100824.59;1678336;83;21222;-64
2021/01/06 09:10:08;;;;;;;25.05;16.15;;;;;;;1.52;100.00;100826.39;1680667;84;21144;-65
2021/01/06 09:12:53;;;;;;;26.95;15.93;;;;;;;1.57;100.00;100821.73;1680733;84;21049;-66
2021/01/06 09:15:45;;;;;;;24.02;15.35;;;;;;;1.62;100.00;100822.20;1684357;83;21135;-65
2021/01/06 09:18:18;;;;;;;27.32;16.60;;;;;;;1.65;100.00;100823.27;1681722;84;22583;-66
2021/01/06 09:21:11;;;;;;;25.32;14.93;;;;;;;1.69;100.00;100822.12;1684744;84;21012;-65
2021/01/06 09:23:39;;;;;;;27.15;15.55;;;;;;;1.71;100.00;100823.31;1683415;83;21594;-67
2021/01/06 09:26:09;;;;;;;26.70;16.20;;;;;;;1.72;100.00;100822.84;1680024;83;21641;-66
2021/01/06 09:28:38;;;;;;;28.95;16.65;;;;;;;1.75;100.00;100821.34;1664648;84;21605;-64
2021/01/06 09:31:08;;;;;;;26.00;17.23;;;;;;;1.76;100.00;100822.97;1679357;83;21451;-65
2021/01/06 09:33:39;;;;;;;29.42;17.07;;;;;;;1.76;100.00;100822.50;1669680;83;21246;-67
2021/01/06 09:36:08;;;;;;;22.17;13.93;;;;;;;1.79;100.00;100823.56;1641653;83;21246;-64
2021/01/06 09:38:44;;;;;;;29.77;15.78;;;;;;;1.82;100.00;100827.64;1678067;84;21193;-64
2021/01/06 09:41:18;;;;;;;26.33;16.60;;;;;;;1.81;100.00;100830.69;1676880;84;21490;-64
2021/01/06 09:44:03;;;;;;;23.80;15.48;;;;;;;1.82;100.00;100822.50;1677337;83;21452;-66
2021/01/06 09:46:56;;;;;;;29.40;15.93;;;;;;;1.81;100.00;100815.26;1678200;84;21876;-67
2021/01/06 09:49:27;;;;;;;25.32;16.90;;;;;;;1.81;100.00;100812.69;1647729;86;21220;-65
2021/01/06 09:51:56;;;;;;;20.57;14.90;;;;;;;1.81;100.00;100802.41;1673384;83;21244;-67
2021/01/06 09:54:25;;;;;;;21.85;15.48;;;;;;;1.84;100.00;100807.80;1670492;84;21269;-64
2021/01/06 09:56:54;;;;;;;24.23;15.40;;;;;;;1.86;100.00;100803.37;1677942;83;21383;-80
2021/01/06 09:59:28;;;;;;;19.20;13.72;;;;;;;1.85;100.00;100796.58;1621781;86;21261;-65
2021/01/06 10:02:20;;;;;;;29.07;17.52;;;;;;;1.88;100.00;100807.92;1662946;84;21198;-65
2021/01/06 10:04:48;;;;;;;23.67;17.10;;;;;;;1.90;100.00;100808.64;1674403;84;21132;-64
2021/01/06 10:07:48;;;;;;;26.55;16.05;;;;;;;1.93;100.00;100810.52;1608452;87;21189;-67
2021/01/06 10:10:26;;;;;;;26.10;17.35;;;;;;;1.95;100.00;100807.36;1680149;84;21279;-68
2021/01/06 10:13:14;;;;;;;21.10;13.28;;;;;;;1.94;100.00;100803.63;1660463;84;21078;-68
2021/01/06 10:16:20;;;;;;;25.62;14.15;;;;;;;1.92;100.00;100807.58;1678653;84;21000;-67
2021/01/06 10:19:11;;;;;;;27.60;15.65;;;;;;;1.87;100.00;100806.30;1625611;86;21175;-73
2021/01/06 10:22:03;;;;;;;23.57;14.40;;;;;;;1.84;100.00;100810.37;1638176;87;21023;-65
2021/01/06 10:25:11;;;;;;;26.82;16.30;;;;;;;1.83;100.00;100808.73;1606887;87;21292;-63
2021/01/06 10:27:44;;;;;;;101.50;35.15;;;;;;;1.82;100.00;100812.22;1659298;84;21185;-66
2021/01/06 10:30:17;;;;;;;39.75;23.75;;;;;;;1.80;100.00;100815.38;1675021;84;21215;-64
2021/01/06 10:33:09;;;;;;;34.48;26.27;;;;;;;1.77;100.00;100814.31;1678984;84;21179;-64
2021/01/06 10:35:42;;;;;;;31.87;23.12;;;;;;;1.78;100.00;100811.66;1626058;86;21173;-69
2021/01/06 10:38:45;;;;;;;26.25;19.05;;;;;;;1.81;100.00;100815.26;1662899;84;21471;-65
2021/01/06 10:41:24;;;;;;;30.80;19.48;;;;;;;1.84;100.00;100815.51;1672055;83;21115;-64
2021/01/06 10:44:01;;;;;;;32.20;17.77;;;;;;;1.88;100.00;100819.48;1674579;83;21144;-62
2021/01/06 10:46:45;;;;;;;31.75;17.65;;;;;;;1.92;100.00;100820.91;1662417;84;21129;-63
2021/01/06 10:49:22;;;;;;;31.97;18.48;;;;;;;1.96;100.00;100824.88;1651635;84;21220;-63
2021/01/06 10:52:09;;;;;;;29.67;17.92;;;;;;;1.98;100.00;100825.60;1662199;84;21477;-64
2021/01/06 10:54:56;;;;;;;29.50;17.50;;;;;;;2.01;100.00;100824.09;1660461;83;21041;-67
2021/01/06 10:57:40;;;;;;;25.65;15.28;;;;;;;2.03;100.00;100825.25;1659250;85;21256;-65
2021/01/06 11:00:19;;;;;;;28.32;17.37;;;;;;;2.03;100.00;100823.97;1670856;84;21144;-66
2021/01/06 11:03:12;;;;;;;29.65;18.52;;;;;;;2.02;100.00;100816.73;1673002;84;21279;-64
2021/01/06 11:05:54;;;;;;;36.65;19.07;;;;;;;1.98;100.00;100824.31;1694074;83;22309;-77
2021/01/06 11:08:54;;;;;;;44.77;22.70;;;;;;;1.93;100.00;100825.10;1706304;83;21615;-65
2021/01/06 11:11:35;;;;;;;42.05;22.52;;;;;;;1.91;100.00;100830.84;1697413;83;21081;-67
2021/01/06 11:14:30;;;;;;;55.12;29.37;;;;;;;1.86;100.00;100834.23;1690480;83;21001;-66
2021/01/06 11:17:20;;;;;;;44.35;25.60;;;;;;;1.81;100.00;100820.87;1650235;84;21660;-66
2021/01/06 11:20:01;;;;;;;47.08;24.80;;;;;;;1.79;100.00;100824.03;1671874;84;21224;-65
2021/01/06 11:22:43;;;;;;;38.50;21.40;;;;;;;1.79;100.00;100825.32;1701071;83;21042;-64
2021/01/06 11:25:43;;;;;;;40.10;20.77;;;;;;;1.81;100.00;100831.97;1679635;84;21133;-68
2021/01/06 11:28:44;;;;;;;39.83;19.80;;;;;;;1.81;100.00;100821.69;1672629;84;21227;-68
2021/01/06 11:31:21;;;;;;;49.53;26.27;;;;;;;1.79;100.00;100820.99;1635421;84;20957;-71
2021/01/06 11:33:53;;;;;;;40.25;21.95;;;;;;;1.77;100.00;100827.17;1675929;84;21409;-65
2021/01/06 11:36:46;;;;;;;39.80;21.57;;;;;;;1.76;100.00;100818.64;1718846;82;21165;-63
2021/01/06 11:39:41;;;;;;;38.40;22.52;;;;;;;1.80;100.00;100815.38;1718995;82;21465;-65
2021/01/06 11:42:15;;;;;;;37.83;20.92;;;;;;;1.83;100.00;100810.84;1704563;82;21130;-63
2021/01/06 11:45:13;;;;;;;51.95;26.70;;;;;;;1.86;100.00;100811.09;1706040;83;20975;-65
2021/01/06 11:47:58;;;;;;;47.43;27.48;;;;;;;1.87;100.00;100810.97;1715299;82;22351;-64
2021/01/06 11:50:37;;;;;;;42.67;23.73;;;;;;;1.92;100.00;100808.86;1711046;82;22261;-64
2021/01/06 11:53:24;;;;;;;51.33;26.95;;;;;;;1.97;100.00;100800.83;1704383;83;21048;-64
2021/01/06 11:56:21;;;;;;;47.83;26.75;;;;;;;2.05;100.00;100804.94;1646571;84;21096;-65
2021/01/06 11:59:26;;;;;;;136.30;76.40;;;;;;;2.12;100.00;100805.27;1707961;83;21563;-63
2021/01/06 12:02:17;;;;;;;88.42;57.55;;;;;;;2.18;100.00;100812.06;1701954;82;21458;-65
2021/01/06 12:05:18;;;;;;;339.65;200.57;;;;;;;2.22;100.00;100810.55;1645433;84;21606;-63
2021/01/06 12:08:09;;;;;;;254.43;125.47;;;;;;;2.26;100.00;100819.67;1666793;84;20955;-64
2021/01/06 12:11:04;;;;;;;257.60;133.22;;;;;;;2.27;100.00;100825.98;1720151;81;20962;-65
2021/01/06 12:13:41;;;;;;;63.70;34.67;;;;;;;2.27;100.00;100825.98;1733209;80;21058;-63
2021/01/06 12:16:21;;;;;;;53.48;30.32;;;;;;;2.26;100.00;100821.78;1730202;80;22136;-64
2021/01/06 12:19:03;;;;;;;60.70;34.30;;;;;;;2.27;100.00;100825.17;1740588;80;21563;-64
2021/01/06 12:21:46;;;;;;;50.00;30.55;;;;;;;2.28;100.00;100820.39;1709156;82;21258;-63
2021/01/06 12:24:30;;;;;;;53.75;29.45;;;;;;;2.29;100.00;100818.98;1716410;82;21127;-65
2021/01/06 12:27:34;;;;;;;44.15;24.05;;;;;;;2.30;100.00;100827.05;1725839;82;21216;-67
2021/01/06 12:30:13;;;;;;;48.05;25.35;;;;;;;2.30;100.00;100831.38;1725660;82;21269;-64
2021/01/06 12:33:04;;;;;;;41.55;23.98;;;;;;;2.29;100.00;100825.88;1725025;81;21575;-63
2021/01/06 12:35:40;;;;;;;44.35;24.23;;;;;;;2.28;100.00;100830.69;1707752;82;21128;-66
2021/01/06 12:38:11;;;;;;;46.28;25.45;;;;;;;2.27;100.00;100821.31;1738665;81;21516;-65
2021/01/06 12:41:08;;;;;;;50.15;25.23;;;;;;;2.28;100.00;100822.50;1746990;81;21050;-65
2021/01/06 12:43:53;;;;;;;62.13;32.83;;;;;;;2.31;100.00;100829.98;1747953;81;21202;-65
2021/01/06 12:46:46;;;;;;;48.83;25.97;;;;;;;2.32;100.00;100838.52;1742288;81;21161;-65
2021/01/06 12:49:21;;;;;;;42.95;23.90;;;;;;;2.35;100.00;100840.84;1721481;81;21185;-64
2021/01/06 12:52:37;;;;;;;45.20;24.95;;;;;;;2.35;100.00;100836.98;1732606;81;21138;-64
2021/01/06 12:55:28;;;;;;;45.85;24.87;;;;;;;2.33;100.00;100838.39;1757327;80;21167;-64
2021/01/06 12:58:11;;;;;;;44.83;24.37;;;;;;;2.34;100.00;100843.06;1732266;81;22233;-65
2021/01/06 13:00:44;;;;;;;53.48;27.82;;;;;;;2.33;100.00;100838.87;1761491;80;21093;-65
2021/01/06 13:03:41;;;;;;;57.15;28.57;;;;;;;2.31;100.00;100843.30;1711964;82;21132;-65
2021/01/06 13:06:43;;;;;;;53.33;27.37;;;;;;;2.29;100.00;100832.31;1739333;80;21026;-66
2021/01/06 13:09:17;;;;;;;55.25;25.12;;;;;;;2.29;100.00;100827.98;1733997;80;21594;-64
2021/01/06 13:12:06;;;;;;;48.08;26.50;;;;;;;2.29;100.00;100829.74;1749497;80;21211;-65
2021/01/06 13:14:47;;;;;;;64.65;34.83;;;;;;;2.29;100.00;100829.74;1763215;80;21014;-70
2021/01/06 13:17:23;;;;;;;49.03;25.02;;;;;;;2.29;100.00;100840.84;1763131;80;21616;-64
2021/01/06 13:20:09;;;;;;;52.58;27.77;;;;;;;2.28;100.00;100835.83;1747512;80;21102;-64
2021/01/06 13:23:01;;;;;;;48.63;26.65;;;;;;;2.27;100.00;100841.41;1767065;80;20971;-64
2021/01/06 13:25:35;;;;;;;;;;;;;;;2.28;100.00;100839.69;1756398;80;21213;-67
2021/01/06 13:28:26;;;;;;;63.28;35.90;;;;;;;2.28;100.00;100838.41;1767655;80;20240;-66
2021/01/06 13:31:18;;;;;;;51.75;27.22;;;;;;;2.26;100.00;100835.92;1737718;80;21258;-65
2021/01/06 13:33:51;;;;;;;54.03;29.00;;;;;;;2.25;100.00;100841.20;1724128;81;21110;-65
2021/01/06 13:36:26;;;;;;;48.73;26.87;;;;;;;2.22;100.00;100834.52;1741693;81;21074;-64
2021/01/06 13:39:11;;;;;;;70.70;31.45;;;;;;;2.23;100.00;100841.77;1769711;80;22067;-64
2021/01/06 13:41:46;;;;;;;54.83;25.80;;;;;;;2.25;100.00;100845.05;1758018;80;21171;-64
2021/01/06 13:44:35;;;;;;;52.85;29.02;;;;;;;2.26;100.00;100840.26;1745392;80;21018;-63
2021/01/06 13:47:24;;;;;;;52.43;25.88;;;;;;;2.24;100.00;100837.81;1750217;81;20972;-74
2021/01/06 13:50:23;;;;;;;54.95;27.80;;;;;;;2.25;100.00;100842.48;1750429;81;21189;-65
2021/01/06 13:53:17;;;;;;;51.92;28.80;;;;;;;2.23;100.00;100840.01;1718070;81;21425;-64
2021/01/06 13:56:15;;;;;;;60.17;32.15;;;;;;;2.23;100.00;100837.91;1740241;81;21137;-70
2021/01/06 13:59:09;;;;;;;53.00;29.70;;;;;;;2.23;100.00;100837.44;1754410;81;21552;-64
2021/01/06 14:01:43;;;;;;;67.72;33.02;;;;;;;2.25;100.00;100845.88;1664904;85;21234;-63
2021/01/06 14:04:17;;;;;;;64.75;30.77;;;;;;;2.27;100.00;100836.74;1656402;85;21235;-64
2021/01/06 14:07:09;;;;;;;57.43;28.00;;;;;;;2.33;100.00;100845.30;1819587;78;22834;-66
2021/01/06 14:10:05;;;;;;;49.58;26.90;;;;;;;2.30;100.00;100850.66;1801612;79;20954;-64
2021/01/06 14:13:19;;;;;;;60.15;29.90;;;;;;;2.30;100.00;100845.52;1800709;79;21796;-65
2021/01/06 14:16:15;;;;;;;56.92;31.37;;;;;;;2.30;100.00;100848.09;1795233;79;21039;-64
2021/01/06 14:19:18;;;;;;;60.52;28.50;;;;;;;2.30;100.00;100842.95;1743594;81;21045;-63
2021/01/06 14:22:06;;;;;;;50.00;25.70;;;;;;;2.30;100.00;100839.09;1759680;81;20983;-65
2021/01/06 14:24:36;;;;;;;56.20;28.20;;;;;;;2.30;100.00;100851.95;1741295;79;21014;-66
2021/01/06 14:27:19;;;;;;;58.98;26.50;;;;;;;2.31;100.00;100856.16;1732339;81;21536;-65
2021/01/06 14:29:55;;;;;;;51.53;28.75;;;;;;;2.31;100.00;100856.16;1754421;79;20995;-63
2021/01/06 14:32:34;;;;;;;61.30;30.52;;;;;;;2.30;100.00;100860.95;1748678;79;20965;-71
2021/01/06 14:35:16;;;;;;;59.73;30.48;;;;;;;2.29;100.00;100859.33;1750864;79;21777;-70
2021/01/06 14:38:07;;;;;;;50.00;25.48;;;;;;;2.28;100.00;100858.52;1750149;79;21164;-68
2021/01/06 14:43:48;;;;;;;49.77;26.43;;;;;;;2.33;100.00;100858.16;1823191;77;23403;-71
2021/01/06 14:46:43;;;;;;;51.37;26.33;;;;;;;2.29;100.00;100858.04;1796590;79;20990;-70
2021/01/06 14:49:25;;;;;;;53.30;29.75;;;;;;;2.28;100.00;100855.94;1784769;79;21278;-70
2021/01/06 14:52:26;;;;;;;51.95;28.20;;;;;;;2.30;100.00;100859.67;1806597;79;20934;-72
2021/01/06 14:55:17;;;;;;;48.52;24.27;;;;;;;2.32;100.00;100858.62;1793302;79;21010;-71
2021/01/06 14:58:13;;;;;;;48.92;25.52;;;;;;;2.33;100.00;100853.83;1707833;80;21575;-75
2021/01/06 15:00:57;;;;;;;49.53;25.10;;;;;;;2.37;100.00;100854.42;1742739;81;20998;-73
2021/01/06 15:04:20;;;;;;;45.90;24.47;;;;;;;2.39;100.00;100859.00;1741413;81;21215;-69
2021/01/06 15:07:29;;;;;;;43.05;23.45;;;;;;;2.39;100.00;100862.86;1741873;81;21032;-70
2021/01/06 15:10:13;;;;;;;49.08;27.32;;;;;;;2.39;100.00;100858.53;1701292;81;21476;-70
2021/01/06 15:12:46;;;;;;;53.68;28.23;;;;;;;2.40;100.00;100861.91;1735883;81;21012;-69
2021/01/06 15:15:28;;;;;;;60.88;35.23;;;;;;;2.42;100.00;100857.45;1743463;81;21631;-69
2021/01/06 15:18:04;;;;;;;50.35;26.87;;;;;;;2.45;100.00;100857.23;1753515;80;21355;-69
2021/01/06 15:20:40;;;;;;;52.40;25.52;;;;;;;2.47;100.00;100864.38;1765255;80;21173;-69
2021/01/06 15:23:26;;;;;;;59.13;28.85;;;;;;;2.49;100.00;100866.36;1757489;80;21015;-70
2021/01/06 15:25:57;;;;;;;58.05;26.77;;;;;;;2.49;100.00;100864.25;1755658;80;21152;-71
2021/01/06 15:28:33;;;;;;;53.85;26.35;;;;;;;2.52;100.00;100863.55;1764699;80;21177;-71
2021/01/06 15:31:08;;;;;;;48.00;24.60;;;;;;;2.53;100.00;100861.33;1704736;82;22143;-72
2021/01/06 15:33:44;;;;;;;51.92;27.15;;;;;;;2.55;100.00;100863.80;1736267;80;21038;-69
2021/01/06 15:36:17;;;;;;;58.92;30.23;;;;;;;2.56;100.00;100866.25;1735268;80;21595;-72
2021/01/06 15:38:47;;;;;;;52.03;27.17;;;;;;;2.56;100.00;100870.11;1762067;80;21142;-73
2021/01/06 15:41:15;;;;;;;51.95;28.17;;;;;;;2.56;100.00;100874.44;1763781;80;21145;-73
2021/01/06 15:43:47;;;;;;;61.60;27.00;;;;;;;2.57;100.00;100879.46;1753984;80;22333;-73
2021/01/06 15:46:32;;;;;;;48.08;23.98;;;;;;;2.59;100.00;100877.60;1741613;81;21232;-73
2021/01/06 15:49:08;;;;;;;44.08;22.95;;;;;;;2.60;100.00;100879.70;1787482;79;21248;-73
2021/01/06 15:51:45;;;;;;;45.73;23.85;;;;;;;2.59;100.00;100881.46;1743962;79;20952;-71
2021/01/06 15:54:29;;;;;;;44.33;23.87;;;;;;;2.58;100.00;100885.45;1792979;79;21024;-71
2021/01/06 15:57:06;;;;;;;48.08;26.40;;;;;;;2.57;100.00;100880.75;1789579;79;22096;-71
2021/01/06 15:59:35;;;;;;;48.90;25.32;;;;;;;2.58;100.00;100890.59;1763860;79;20987;-74
2021/01/06 16:02:06;;;;;;;49.88;28.00;;;;;;;2.58;100.00;100886.27;1790155;79;21528;-70
2021/01/06 16:04:37;;;;;;;55.43;28.00;;;;;;;2.58;100.00;100882.88;1786068;79;21591;-71
2021/01/06 16:07:14;;;;;;;55.35;27.22;;;;;;;2.59;100.00;100890.94;1789895;79;21126;-75
2021/01/06 16:09:42;;;;;;;96.25;55.17;;;;;;;2.61;100.00;100892.92;1731910;80;22741;-75
2021/01/06 16:12:24;;;;;;;82.62;51.50;;;;;;;2.63;100.00;100889.30;1748108;81;21172;-73
2021/01/06 16:15:00;;;;;;;71.67;38.20;;;;;;;2.65;100.00;100893.88;1744236;81;21034;-75
2021/01/06 16:17:39;;;;;;;68.75;31.77;;;;;;;2.67;100.00;100889.42;1741874;81;21188;-73
2021/01/06 16:20:23;;;;;;;63.60;31.57;;;;;;;2.74;100.00;100896.69;1784180;79;21574;-73
2021/01/06 16:22:53;;;;;;;71.10;33.88;;;;;;;2.78;100.00;100898.91;1785169;79;21392;-76